createdAt,value
2022-09-05T00:01:13.997Z,6.78
2022-09-05T00:04:24.304Z,7.18
2022-09-05T00:07:34.369Z,7.05
2022-09-05T00:10:44.791Z,8.98
2022-09-05T00:14:04.838Z,4.78
2022-09-05T00:17:03.312Z,6.40
2022-09-05T00:24:07.567Z,7.10
2022-09-05T00:24:36.683Z,5.00
2022-09-05T00:26:36.931Z,5.65
2022-09-05T00:31:06.765Z,7.05
2022-09-05T00:33:17.533Z,6.60
2022-09-05T00:36:21.752Z,4.28
2022-09-05T00:39:14.814Z,6.43
2022-09-05T00:42:09.257Z,4.80
2022-09-05T00:45:01.735Z,5.35
2022-09-05T00:47:54.629Z,4.73
2022-09-05T00:50:59.402Z,4.47
2022-09-05T00:53:57.020Z,4.70
2022-09-05T00:56:59.026Z,4.82
2022-09-05T01:00:07.173Z,6.63
2022-09-05T01:03:10.790Z,9.35
2022-09-05T01:06:20.741Z,6.65
2022-09-05T01:09:13.321Z,7.05
2022-09-05T01:12:16.431Z,7.10
2022-09-05T01:15:22.674Z,5.40
2022-09-05T01:18:25.783Z,5.15
2022-09-05T01:21:38.684Z,5.93
2022-09-05T01:24:43.290Z,7.32
2022-09-05T01:29:13.212Z,6.15
2022-09-05T01:31:04.572Z,6.15
2022-09-05T01:33:58.526Z,3.38
2022-09-05T01:36:55.289Z,3.90
2022-09-05T01:40:14.946Z,5.53
2022-09-05T01:43:12.325Z,6.13
2022-09-05T01:46:09.569Z,4.65
2022-09-05T01:49:09.947Z,5.80
2022-09-05T01:52:19.746Z,7.57
2022-09-05T01:55:29.819Z,5.45
2022-09-05T01:58:25.743Z,4.25
2022-09-05T02:01:25.550Z,5.00
2022-09-05T02:04:46.752Z,5.15
2022-09-05T02:07:33.345Z,10.32
2022-09-05T02:10:38.686Z,7.65
2022-09-05T02:13:42.784Z,6.25
2022-09-05T02:16:36.267Z,6.28
2022-09-05T02:19:29.645Z,6.90
2022-09-05T02:25:24.835Z,5.05
2022-09-05T02:28:28.471Z,8.30
2022-09-05T02:31:26.165Z,7.32
2022-09-05T02:34:20.380Z,6.32
2022-09-05T02:37:15.670Z,7.05
2022-09-05T02:45:07.048Z,6.93
2022-09-05T02:45:09.926Z,9.02
2022-09-05T02:46:44.591Z,9.02
2022-09-05T02:51:30.463Z,8.35
2022-09-05T02:57:29.586Z,5.60
2022-09-05T02:57:34.570Z,7.82
2022-09-05T02:59:47.560Z,3.65
2022-09-05T03:02:50.971Z,4.45
2022-09-05T03:05:47.167Z,4.32
2022-09-05T03:08:50.626Z,5.13
2022-09-05T03:12:28.435Z,8.13
2022-09-05T03:15:45.647Z,4.95
2022-09-05T03:19:06.727Z,9.85
2022-09-05T03:21:59.099Z,6.05
2022-09-05T03:25:24.764Z,6.30
2022-09-05T03:28:44.136Z,3.65
2022-09-05T03:31:31.090Z,4.82
2022-09-05T03:34:44.753Z,5.28
2022-09-05T03:37:55.749Z,4.65
2022-09-05T03:40:45.547Z,7.43
2022-09-05T03:44:01.776Z,4.40
2022-09-05T03:46:54.421Z,4.70
2022-09-05T03:53:37.937Z,7.70
2022-09-05T03:57:15.841Z,5.43
2022-09-05T03:57:24.924Z,7.47
2022-09-05T04:00:09.195Z,8.23
2022-09-05T04:08:05.742Z,4.75
2022-09-05T04:08:18.633Z,11.60
2022-09-05T04:09:51.147Z,5.22
2022-09-05T04:12:51.237Z,6.32
2022-09-05T04:15:45.149Z,8.77
2022-09-05T04:18:39.764Z,7.07
2022-09-05T04:21:30.769Z,5.95
2022-09-05T04:24:26.474Z,12.45
2022-09-05T04:27:28.222Z,6.70
2022-09-05T04:30:39.482Z,7.97
2022-09-05T04:33:37.546Z,6.85
2022-09-05T04:36:28.361Z,6.32
2022-09-05T04:39:27.533Z,5.72
2022-09-05T04:42:22.946Z,12.50
2022-09-05T04:45:13.662Z,15.95
2022-09-05T04:48:13.675Z,11.88
2022-09-05T04:51:11.580Z,6.22
2022-09-05T04:54:19.906Z,6.35
2022-09-05T04:57:17.865Z,5.63
2022-09-05T05:03:09.929Z,8.63
2022-09-05T05:06:13.725Z,5.72
2022-09-05T05:06:45.028Z,8.68
2022-09-05T05:09:40.137Z,9.25
2022-09-05T05:17:58.814Z,7.53
2022-09-05T05:18:10.723Z,8.18
2022-09-05T05:19:18.706Z,9.32
2022-09-05T05:22:16.271Z,10.00
2022-09-05T05:25:04.049Z,9.00
2022-09-05T05:28:10.961Z,7.20
2022-09-05T05:31:15.862Z,6.07
2022-09-05T05:34:23.991Z,8.68
2022-09-05T05:37:20.865Z,8.65
2022-09-05T05:40:11.850Z,6.72
2022-09-05T05:43:14.924Z,7.55
2022-09-05T05:46:02.870Z,8.27
2022-09-05T05:48:57.317Z,8.27
2022-09-05T05:52:02.457Z,10.25
2022-09-05T05:55:09.721Z,8.98
2022-09-05T05:58:17.238Z,8.75
2022-09-05T06:01:40.899Z,9.43
2022-09-05T06:05:04.221Z,11.25
2022-09-05T06:12:24.701Z,12.13
2022-09-05T06:14:58.566Z,6.90
2022-09-05T06:15:11.526Z,8.85
2022-09-05T06:18:26.014Z,11.02
2022-09-05T06:22:09.279Z,12.70
2022-09-05T06:25:26.804Z,11.93
2022-09-05T06:28:23.952Z,10.88
2022-09-05T06:31:30.834Z,7.63
2022-09-05T06:34:35.769Z,12.73
2022-09-05T06:37:36.134Z,9.70
2022-09-05T06:40:32.016Z,13.73
2022-09-05T06:43:34.508Z,10.70
2022-09-05T06:46:52.937Z,8.50
2022-09-05T06:49:55.065Z,7.60
2022-09-05T06:53:15.028Z,7.65
2022-09-05T06:56:26.128Z,7.47
2022-09-05T06:59:46.007Z,8.10
2022-09-05T07:02:58.847Z,9.02
2022-09-05T07:05:55.728Z,7.53
2022-09-05T07:08:54.173Z,9.88
2022-09-05T07:11:50.086Z,13.35
2022-09-05T07:14:49.034Z,9.85
2022-09-05T07:18:09.092Z,6.35
2022-09-05T07:21:16.692Z,7.80
2022-09-05T07:24:11.134Z,7.30
2022-09-05T07:27:01.288Z,6.18
2022-09-05T07:30:01.214Z,5.90
2022-09-05T07:32:54.067Z,5.07
2022-09-05T07:35:42.710Z,9.63
2022-09-05T07:38:49.030Z,6.03
2022-09-05T07:41:39.693Z,5.57
2022-09-05T07:44:32.690Z,6.68
2022-09-05T07:47:23.771Z,5.95
2022-09-05T07:51:59.212Z,4.47
2022-09-05T07:56:50.275Z,4.25
2022-09-05T07:56:55.223Z,4.80
2022-09-05T07:59:54.995Z,7.22
2022-09-05T08:02:51.392Z,7.78
2022-09-05T08:05:45.265Z,3.53
2022-09-05T08:08:35.656Z,5.25
2022-09-05T08:11:26.937Z,6.28
2022-09-05T08:14:44.019Z,6.70
2022-09-05T08:17:35.667Z,6.18
2022-09-05T08:20:33.501Z,4.50
2022-09-05T08:23:43.287Z,3.38
2022-09-05T08:26:37.458Z,4.63
2022-09-05T08:29:32.394Z,5.70
2022-09-05T08:32:24.633Z,5.47
2022-09-05T08:35:19.971Z,5.90
2022-09-05T08:38:10.132Z,4.25
2022-09-05T08:41:07.168Z,5.78
2022-09-05T08:46:37.858Z,6.07
2022-09-05T08:47:24.323Z,4.65
2022-09-05T08:50:26.908Z,4.30
2022-09-05T08:53:45.724Z,5.87
2022-09-05T08:56:45.127Z,4.60
2022-09-05T09:00:11.984Z,3.78
2022-09-05T09:03:04.753Z,6.28
2022-09-05T09:06:17.671Z,6.75
2022-09-05T09:09:18.674Z,5.93
2022-09-05T09:12:16.608Z,4.25
2022-09-05T09:15:13.931Z,8.60
2022-09-05T09:18:05.657Z,3.65
2022-09-05T09:21:01.126Z,2.58
2022-09-05T09:23:54.804Z,3.60
2022-09-05T09:26:53.314Z,6.07
2022-09-05T09:29:43.642Z,4.93
2022-09-05T09:32:31.702Z,4.80
2022-09-05T09:35:24.728Z,5.57
2022-09-05T09:38:25.009Z,4.13
2022-09-05T09:41:36.981Z,2.78
2022-09-05T09:45:28.259Z,4.15
2022-09-05T09:48:43.124Z,4.00
2022-09-05T09:51:46.932Z,6.75
2022-09-05T09:55:20.945Z,3.50
2022-09-05T09:58:14.444Z,4.18
2022-09-05T10:01:20.298Z,3.80
2022-09-05T10:10:40.019Z,5.93
2022-09-05T10:10:52.717Z,3.10
2022-09-05T10:11:52.131Z,3.28
2022-09-05T10:14:49.890Z,5.70
2022-09-05T10:17:40.490Z,3.13
2022-09-05T10:20:55.235Z,4.63
2022-09-05T10:24:28.440Z,4.13
2022-09-05T10:27:28.020Z,3.55
2022-09-05T10:30:41.852Z,3.17
2022-09-05T10:35:14.709Z,5.35
2022-09-05T10:36:55.132Z,4.55
2022-09-05T10:39:47.285Z,3.53
2022-09-05T10:42:43.344Z,3.42
2022-09-05T10:45:48.706Z,2.47
2022-09-05T10:48:44.259Z,2.63
2022-09-05T10:51:37.814Z,4.78
2022-09-05T10:54:38.565Z,2.05
2022-09-05T10:57:38.490Z,2.67
2022-09-05T11:02:24.542Z,7.35
2022-09-05T11:04:07.022Z,3.53
2022-09-05T11:06:57.529Z,4.47
2022-09-05T11:10:01.729Z,5.55
2022-09-05T11:13:07.576Z,5.10
2022-09-05T11:16:12.774Z,3.67
2022-09-05T11:19:05.115Z,5.28
2022-09-05T11:22:13.638Z,2.85
2022-09-05T11:25:19.034Z,3.22
2022-09-05T11:28:20.446Z,2.40
2022-09-05T11:31:13.693Z,3.42
2022-09-05T11:37:54.649Z,2.60
2022-09-05T11:40:09.002Z,2.58
2022-09-05T11:41:42.305Z,4.15
2022-09-05T11:44:36.575Z,2.65
2022-09-05T11:47:51.663Z,3.58
2022-09-05T11:50:50.661Z,3.65
2022-09-05T11:53:44.284Z,9.38
2022-09-05T11:57:06.491Z,6.10
2022-09-05T12:04:00.322Z,3.40
2022-09-05T12:07:30.195Z,5.82
2022-09-05T12:10:47.389Z,3.17
2022-09-05T12:13:47.195Z,7.25
2022-09-05T12:16:47.930Z,3.05
2022-09-05T12:19:41.981Z,4.22
2022-09-05T12:22:34.484Z,2.30
2022-09-05T12:27:42.467Z,3.00
2022-09-05T12:29:28.902Z,3.13
2022-09-05T12:32:49.461Z,3.17
2022-09-05T12:36:13.160Z,3.22
2022-09-05T12:41:32.215Z,2.80
2022-09-05T12:41:34.719Z,2.85
2022-09-05T12:42:13.889Z,5.07
2022-09-05T12:45:10.418Z,2.47
2022-09-05T12:48:05.654Z,3.30
2022-09-05T12:50:57.700Z,4.35
2022-09-05T12:53:46.859Z,3.35
2022-09-05T12:59:56.705Z,3.63
2022-09-05T13:02:59.508Z,6.82
2022-09-05T13:03:26.949Z,2.83
2022-09-05T13:06:24.624Z,2.85
2022-09-05T13:09:22.468Z,4.78
2022-09-05T13:14:58.511Z,6.50
2022-09-05T13:15:36.584Z,2.00
2022-09-05T13:18:28.669Z,2.40
2022-09-05T13:21:23.231Z,3.05
2022-09-05T13:24:14.738Z,3.97
2022-09-05T13:27:13.939Z,2.28
2022-09-05T13:31:42.041Z,2.85
2022-09-05T13:38:05.046Z,4.80
2022-09-05T13:38:14.178Z,5.97
2022-09-05T13:39:49.929Z,2.72
2022-09-05T13:42:41.067Z,4.05
2022-09-05T13:49:23.557Z,5.00
2022-09-05T13:51:46.603Z,3.78
2022-09-05T13:54:48.798Z,7.90
2022-09-05T13:57:41.486Z,3.45
2022-09-05T14:01:01.505Z,4.50
2022-09-05T14:05:05.200Z,2.78
2022-09-05T14:07:55.840Z,7.47
2022-09-05T14:11:00.547Z,4.07
2022-09-05T14:14:11.102Z,5.97
2022-09-05T14:20:27.508Z,4.97
2022-09-05T14:23:15.263Z,1.88
2022-09-05T14:26:14.809Z,3.13
2022-09-05T14:29:14.537Z,2.75
2022-09-05T14:37:46.472Z,4.05
2022-09-05T14:37:55.498Z,3.08
2022-09-05T14:42:11.301Z,4.07
2022-09-05T14:45:30.845Z,4.45
2022-09-05T14:48:45.663Z,5.25
2022-09-05T14:51:47.698Z,6.20
2022-09-05T15:02:38.684Z,2.88
2022-09-05T15:02:51.201Z,4.15
2022-09-05T15:07:20.871Z,8.73
2022-09-05T15:12:17.000Z,6.47
2022-09-05T15:13:38.866Z,7.10
2022-09-05T15:16:26.998Z,4.28
2022-09-05T15:20:05.863Z,4.57
2022-09-05T15:22:57.542Z,3.30
2022-09-05T15:25:49.012Z,7.82
2022-09-05T15:28:39.375Z,2.63
2022-09-05T15:31:28.256Z,5.70
2022-09-05T15:34:26.598Z,5.07
2022-09-05T15:37:30.350Z,2.92
2022-09-05T15:40:23.175Z,7.53
2022-09-05T15:43:19.952Z,3.00
2022-09-05T15:46:08.760Z,4.75
2022-09-05T15:48:58.492Z,2.03
2022-09-05T15:51:51.003Z,8.20
2022-09-05T15:54:49.561Z,2.95
2022-09-05T15:57:42.735Z,5.88
2022-09-05T16:00:51.250Z,2.97
2022-09-05T16:07:05.590Z,3.53
2022-09-05T16:10:37.542Z,2.92
2022-09-05T16:10:48.951Z,4.37
2022-09-05T16:13:17.648Z,7.32
2022-09-05T16:23:00.963Z,5.20
2022-09-05T16:23:26.700Z,4.07
2022-09-05T16:23:30.083Z,3.83
2022-09-05T16:25:46.890Z,5.65
2022-09-05T16:28:39.881Z,2.83
2022-09-05T16:31:36.891Z,5.93
2022-09-05T16:34:34.115Z,7.63
2022-09-05T16:37:28.205Z,5.53
2022-09-05T16:40:20.674Z,6.18
2022-09-05T16:43:15.737Z,6.80
2022-09-05T16:46:08.556Z,7.40
2022-09-05T16:49:01.366Z,3.05
2022-09-05T16:52:02.619Z,4.72
2022-09-05T16:54:53.293Z,2.78
2022-09-05T16:57:44.792Z,3.58
2022-09-05T17:00:53.933Z,5.00
2022-09-05T17:03:54.388Z,5.85
2022-09-05T17:06:50.061Z,7.00
2022-09-05T17:09:43.541Z,4.28
2022-09-05T17:12:35.345Z,10.02
2022-09-05T17:15:27.837Z,5.57
2022-09-05T17:18:21.652Z,4.38
2022-09-05T17:21:18.718Z,3.42
2022-09-05T17:29:16.588Z,3.80
2022-09-05T17:29:31.919Z,5.55
2022-09-05T17:34:35.950Z,6.23
2022-09-05T17:37:39.454Z,5.65
2022-09-05T17:46:25.123Z,7.75
2022-09-05T17:49:19.923Z,8.50
2022-09-05T17:52:23.192Z,6.32
2022-09-05T17:55:18.553Z,6.13
2022-09-05T17:58:24.035Z,7.85
2022-09-05T18:01:19.839Z,8.45
2022-09-05T18:04:16.790Z,5.90
2022-09-05T18:07:47.878Z,8.77
2022-09-05T18:11:01.200Z,7.90
2022-09-05T18:13:59.338Z,7.93
2022-09-05T18:17:35.493Z,14.73
2022-09-05T18:20:09.504Z,10.45
2022-09-05T18:23:34.257Z,9.43
2022-09-05T18:26:22.974Z,6.45
2022-09-05T18:29:57.196Z,6.53
2022-09-05T18:32:45.282Z,6.32
2022-09-05T18:35:38.218Z,7.05
2022-09-05T18:38:34.502Z,8.45
2022-09-05T18:41:38.833Z,5.40
2022-09-05T18:44:29.688Z,9.45
2022-09-05T18:47:33.510Z,8.65
2022-09-05T18:50:27.870Z,6.65
2022-09-05T18:53:25.275Z,11.68
2022-09-05T18:56:23.372Z,7.45
2022-09-05T18:59:24.166Z,7.15
2022-09-05T19:02:26.635Z,11.45
2022-09-05T19:05:46.432Z,10.05
2022-09-05T19:08:43.414Z,8.43
2022-09-05T19:11:35.677Z,9.88
2022-09-05T19:14:37.687Z,8.65
2022-09-05T19:17:35.057Z,10.77
2022-09-05T19:20:32.594Z,9.85
2022-09-05T19:23:26.911Z,8.82
2022-09-05T19:26:14.806Z,6.70
2022-09-05T19:36:57.822Z,7.57
2022-09-05T19:37:05.136Z,6.90
2022-09-05T19:37:09.979Z,9.13
2022-09-05T19:38:39.684Z,8.63
2022-09-05T19:47:25.171Z,7.15
2022-09-05T19:47:56.631Z,9.93
2022-09-05T19:51:16.171Z,8.57
2022-09-05T19:54:23.393Z,7.10
2022-09-05T19:57:19.630Z,8.23
2022-09-05T20:00:07.973Z,9.43
2022-09-05T20:03:01.258Z,12.13
2022-09-05T20:05:50.673Z,7.18
2022-09-05T20:08:37.910Z,8.68
2022-09-05T20:11:45.249Z,8.52
2022-09-05T20:14:36.867Z,10.38
2022-09-05T20:17:28.655Z,8.73
2022-09-05T20:20:18.705Z,8.52
2022-09-05T20:23:09.689Z,10.23
2022-09-05T20:25:58.871Z,9.85
2022-09-05T20:28:52.716Z,6.70
2022-09-05T20:31:42.380Z,10.13
2022-09-05T20:35:17.492Z,11.85
2022-09-05T20:43:18.609Z,8.00
2022-09-05T20:43:20.806Z,8.20
2022-09-05T20:44:04.544Z,11.30
2022-09-05T20:53:42.083Z,13.20
2022-09-05T20:54:15.608Z,8.85
2022-09-05T20:54:17.368Z,8.00
2022-09-05T20:56:32.601Z,9.85
2022-09-05T20:59:26.075Z,8.10
2022-09-05T21:02:24.181Z,15.10
2022-09-05T21:05:20.787Z,10.65
2022-09-05T21:08:24.995Z,8.90
2022-09-05T21:11:13.865Z,12.00
2022-09-05T21:14:04.995Z,8.82
2022-09-05T21:17:11.999Z,8.20
2022-09-05T21:20:08.900Z,9.80
2022-09-05T21:22:55.982Z,9.13
2022-09-05T21:25:52.294Z,12.05
2022-09-05T21:28:42.142Z,17.75
2022-09-05T21:31:33.139Z,17.08
2022-09-05T21:34:28.107Z,12.88
2022-09-05T21:37:17.796Z,16.42
2022-09-05T21:40:06.103Z,13.82
2022-09-05T21:45:59.982Z,10.85
2022-09-05T21:47:39.161Z,15.27
2022-09-05T21:49:09.375Z,11.15
2022-09-05T21:51:58.005Z,14.88
2022-09-05T21:59:19.003Z,14.20
2022-09-05T21:59:19.803Z,12.50
2022-09-05T22:00:59.270Z,13.50
2022-09-05T22:03:47.425Z,10.82
2022-09-05T22:06:34.923Z,9.20
2022-09-05T22:09:24.012Z,8.05
2022-09-05T22:12:30.452Z,9.70
2022-09-05T22:15:28.235Z,8.68
2022-09-05T22:18:18.285Z,11.50
2022-09-05T22:21:32.574Z,7.47
2022-09-05T22:24:16.166Z,8.48
2022-09-05T22:27:12.738Z,12.00
2022-09-05T22:30:02.125Z,7.07
2022-09-05T22:32:49.437Z,7.38
2022-09-05T22:35:39.198Z,7.90
2022-09-05T22:38:26.495Z,11.50
2022-09-05T22:41:14.347Z,9.50
2022-09-05T22:44:03.792Z,8.20
2022-09-05T22:46:50.838Z,9.80
2022-09-05T22:49:38.698Z,10.60
2022-09-05T22:52:25.715Z,6.72
2022-09-05T22:55:12.573Z,10.07
2022-09-05T22:57:59.563Z,7.75
2022-09-05T23:00:48.254Z,7.00
2022-09-05T23:03:35.331Z,8.60
2022-09-05T23:06:22.600Z,8.55
2022-09-05T23:09:10.067Z,8.02
2022-09-05T23:11:57.194Z,7.30
2022-09-05T23:14:44.278Z,11.27
2022-09-05T23:17:32.625Z,6.85
2022-09-05T23:20:20.137Z,7.55
2022-09-05T23:23:08.597Z,22.73
2022-09-05T23:26:00.687Z,9.55
2022-09-05T23:28:47.883Z,10.63
2022-09-05T23:31:35.267Z,7.50
2022-09-05T23:34:24.097Z,10.27
2022-09-05T23:37:11.162Z,9.07
2022-09-05T23:39:58.002Z,7.07
2022-09-05T23:42:53.264Z,6.68
2022-09-05T23:45:40.075Z,7.72
2022-09-05T23:48:27.462Z,6.05
2022-09-05T23:51:16.652Z,6.90
2022-09-05T23:54:03.606Z,7.72
2022-09-05T23:56:50.923Z,8.85
2022-09-05T23:59:37.870Z,6.70
